sensor_id;sensor_type;location;lat;lon;timestamp;pressure;altitude;pressure_sealevel;temperature;humidity
75208;BME280;63795;55.684;37.864;2023-02-18T00:02:06;100020.91;;;-9.51;76.78
75208;BME280;63795;55.684;37.864;2023-02-18T00:07:07;100020.09;;;-9.57;76.50
75208;BME280;63795;55.684;37.864;2023-02-18T00:12:07;100022.56;;;-9.61;76.56
75208;BME280;63795;55.684;37.864;2023-02-18T00:17:08;100006.63;;;-9.64;76.57
75208;BME280;63795;55.684;37.864;2023-02-18T00:22:08;100017.03;;;-9.71;76.61
75208;BME280;63795;55.684;37.864;2023-02-18T00:27:08;100010.16;;;-9.83;76.73
75208;BME280;63795;55.684;37.864;2023-02-18T00:32:09;100010.44;;;-9.85;76.88
75208;BME280;63795;55.684;37.864;2023-02-18T00:37:15;100002.72;;;-9.88;76.50
75208;BME280;63795;55.684;37.864;2023-02-18T00:42:15;100001.63;;;-9.92;76.21
75208;BME280;63795;55.684;37.864;2023-02-18T00:47:15;99986.81;;;-9.96;76.40
75208;BME280;63795;55.684;37.864;2023-02-18T00:52:16;99982.97;;;-10.00;76.26
75208;BME280;63795;55.684;37.864;2023-02-18T00:57:16;99976.13;;;-10.02;76.53
75208;BME280;63795;55.684;37.864;2023-02-18T01:02:17;99973.38;;;-10.02;76.43
75208;BME280;63795;55.684;37.864;2023-02-18T01:07:18;99952.53;;;-10.08;76.89
75208;BME280;63795;55.684;37.864;2023-02-18T01:12:18;99957.50;;;-9.95;77.01
75208;BME280;63795;55.684;37.864;2023-02-18T01:17:18;99941.59;;;-9.98;76.48
75208;BME280;63795;55.684;37.864;2023-02-18T01:22:19;99936.41;;;-9.95;76.73
75208;BME280;63795;55.684;37.864;2023-02-18T01:27:19;99932.53;;;-9.94;76.72
75208;BME280;63795;55.684;37.864;2023-02-18T01:32:20;99916.66;;;-9.97;76.44
75208;BME280;63795;55.684;37.864;2023-02-18T01:37:20;99908.41;;;-10.02;76.31
75208;BME280;63795;55.684;37.864;2023-02-18T01:42:24;99897.22;;;-10.10;76.30
75208;BME280;63795;55.684;37.864;2023-02-18T01:47:25;99893.34;;;-10.19;76.29
75208;BME280;63795;55.684;37.864;2023-02-18T01:52:26;99878.25;;;-10.27;76.46
75208;BME280;63795;55.684;37.864;2023-02-18T01:57:30;99885.09;;;-10.29;76.49
75208;BME280;63795;55.684;37.864;2023-02-18T02:02:34;99873.03;;;-10.33;76.68
75208;BME280;63795;55.684;37.864;2023-02-18T02:07:36;99862.38;;;-10.40;76.53
75208;BME280;63795;55.684;37.864;2023-02-18T02:18:26;99858.22;;;-10.53;77.23
75208;BME280;63795;55.684;37.864;2023-02-18T02:55:30;99830.00;;;-10.53;77.38
75208;BME280;63795;55.684;37.864;2023-02-18T03:05:54;99811.38;;;-10.51;77.40
75208;BME280;63795;55.684;37.864;2023-02-18T03:11:14;99797.41;;;-10.50;77.65
75208;BME280;63795;55.684;37.864;2023-02-18T03:21:26;99791.41;;;-10.47;77.39
75208;BME280;63795;55.684;37.864;2023-02-18T03:26:30;99786.47;;;-10.39;77.20
75208;BME280;63795;55.684;37.864;2023-02-18T03:31:33;99766.50;;;-10.35;77.29
75208;BME280;63795;55.684;37.864;2023-02-18T03:36:37;99769.50;;;-10.36;77.33
75208;BME280;63795;55.684;37.864;2023-02-18T03:41:38;99751.72;;;-10.34;77.67
75208;BME280;63795;55.684;37.864;2023-02-18T03:46:41;99752.53;;;-10.23;77.73
75208;BME280;63795;55.684;37.864;2023-02-18T03:51:44;99739.38;;;-10.16;77.52
75208;BME280;63795;55.684;37.864;2023-02-18T03:56:46;99732.50;;;-10.14;78.22
75208;BME280;63795;55.684;37.864;2023-02-18T04:01:46;99724.81;;;-10.07;77.93
75208;BME280;63795;55.684;37.864;2023-02-18T04:06:47;99712.19;;;-10.08;77.94
75208;BME280;63795;55.684;37.864;2023-02-18T04:11:47;99706.44;;;-10.01;78.28
75208;BME280;63795;55.684;37.864;2023-02-18T04:16:48;99700.97;;;-9.96;78.55
75208;BME280;63795;55.684;37.864;2023-02-18T04:21:48;99697.38;;;-9.87;78.45
75208;BME280;63795;55.684;37.864;2023-02-18T04:26:49;99679.81;;;-9.81;78.32
75208;BME280;63795;55.684;37.864;2023-02-18T04:31:49;99675.66;;;-9.73;78.02
75208;BME280;63795;55.684;37.864;2023-02-18T04:36:50;99668.25;;;-9.68;78.23
75208;BME280;63795;55.684;37.864;2023-02-18T04:41:50;99663.31;;;-9.61;78.29
75208;BME280;63795;55.684;37.864;2023-02-18T04:46:50;99656.69;;;-9.54;78.56
75208;BME280;63795;55.684;37.864;2023-02-18T04:51:51;99645.13;;;-9.46;78.52
75208;BME280;63795;55.684;37.864;2023-02-18T04:56:51;99632.19;;;-9.36;78.24
75208;BME280;63795;55.684;37.864;2023-02-18T05:01:52;99631.06;;;-9.30;78.42
75208;BME280;63795;55.684;37.864;2023-02-18T05:06:52;99630.25;;;-9.30;78.26
75208;BME280;63795;55.684;37.864;2023-02-18T05:11:53;99623.09;;;-9.26;78.23
75208;BME280;63795;55.684;37.864;2023-02-18T05:16:54;99626.31;;;-9.19;78.23
75208;BME280;63795;55.684;37.864;2023-02-18T05:21:54;99618.31;;;-9.11;77.84
75208;BME280;63795;55.684;37.864;2023-02-18T05:26:55;99620.22;;;-9.06;77.63
75208;BME280;63795;55.684;37.864;2023-02-18T05:31:55;99605.38;;;-9.05;77.31
75208;BME280;63795;55.684;37.864;2023-02-18T05:36:56;99602.63;;;-9.05;77.30
75208;BME280;63795;55.684;37.864;2023-02-18T05:41:56;99602.38;;;-9.04;77.40
75208;BME280;63795;55.684;37.864;2023-02-18T05:47:00;99589.97;;;-9.01;76.87
75208;BME280;63795;55.684;37.864;2023-02-18T05:52:02;99579.50;;;-8.94;77.06
75208;BME280;63795;55.684;37.864;2023-02-18T05:57:04;99569.81;;;-8.87;77.12
75208;BME280;63795;55.684;37.864;2023-02-18T06:02:04;99565.69;;;-8.84;76.81
75208;BME280;63795;55.684;37.864;2023-02-18T06:07:05;99555.50;;;-8.84;76.57
75208;BME280;63795;55.684;37.864;2023-02-18T06:12:06;99542.91;;;-8.85;76.88
75208;BME280;63795;55.684;37.864;2023-02-18T06:17:11;99534.94;;;-8.86;77.20
75208;BME280;63795;55.684;37.864;2023-02-18T06:22:12;99541.41;;;-8.72;77.18
75208;BME280;63795;55.684;37.864;2023-02-18T06:27:13;99538.84;;;-8.63;76.86
75208;BME280;63795;55.684;37.864;2023-02-18T06:32:13;99523.72;;;-8.61;77.06
75208;BME280;63795;55.684;37.864;2023-02-18T06:37:13;99521.56;;;-8.64;76.93
75208;BME280;63795;55.684;37.864;2023-02-18T06:42:14;99516.84;;;-8.58;77.01
75208;BME280;63795;55.684;37.864;2023-02-18T06:47:15;99514.03;;;-8.53;76.97
75208;BME280;63795;55.684;37.864;2023-02-18T06:52:15;99503.31;;;-8.55;77.36
75208;BME280;63795;55.684;37.864;2023-02-18T06:57:16;99490.00;;;-8.43;77.49
75208;BME280;63795;55.684;37.864;2023-02-18T07:02:16;99482.78;;;-8.34;77.29
75208;BME280;63795;55.684;37.864;2023-02-18T07:07:17;99472.84;;;-8.30;77.12
75208;BME280;63795;55.684;37.864;2023-02-18T07:12:17;99468.06;;;-8.24;77.35
75208;BME280;63795;55.684;37.864;2023-02-18T07:17:18;99442.66;;;-8.35;77.78
75208;BME280;63795;55.684;37.864;2023-02-18T07:22:18;99436.63;;;-8.37;77.50
75208;BME280;63795;55.684;37.864;2023-02-18T07:27:19;99437.69;;;-8.33;77.29
75208;BME280;63795;55.684;37.864;2023-02-18T07:32:20;99416.75;;;-8.29;77.89
75208;BME280;63795;55.684;37.864;2023-02-18T07:37:21;99422.06;;;-8.19;77.94
75208;BME280;63795;55.684;37.864;2023-02-18T07:42:21;99401.88;;;-8.09;77.75
75208;BME280;63795;55.684;37.864;2023-02-18T07:47:22;99394.91;;;-8.02;77.62
75208;BME280;63795;55.684;37.864;2023-02-18T07:52:22;99383.31;;;-7.99;77.64
75208;BME280;63795;55.684;37.864;2023-02-18T07:57:23;99383.53;;;-7.95;77.68
75208;BME280;63795;55.684;37.864;2023-02-18T08:02:23;99369.41;;;-7.89;77.80
75208;BME280;63795;55.684;37.864;2023-02-18T08:07:24;99372.00;;;-7.78;77.72
75208;BME280;63795;55.684;37.864;2023-02-18T08:12:24;99357.06;;;-7.72;77.65
75208;BME280;63795;55.684;37.864;2023-02-18T08:17:25;99359.19;;;-7.69;77.60
75208;BME280;63795;55.684;37.864;2023-02-18T08:22:25;99348.00;;;-7.59;77.62
75208;BME280;63795;55.684;37.864;2023-02-18T08:27:26;99332.78;;;-7.52;77.27
75208;BME280;63795;55.684;37.864;2023-02-18T08:32:27;99336.25;;;-7.46;77.40
75208;BME280;63795;55.684;37.864;2023-02-18T08:37:28;99320.47;;;-7.41;77.48
75208;BME280;63795;55.684;37.864;2023-02-18T08:42:29;99318.22;;;-7.25;77.58
75208;BME280;63795;55.684;37.864;2023-02-18T08:47:29;99302.03;;;-7.13;77.19
75208;BME280;63795;55.684;37.864;2023-02-18T08:52:30;99286.44;;;-7.04;77.01
75208;BME280;63795;55.684;37.864;2023-02-18T08:57:30;99280.75;;;-6.94;76.42
75208;BME280;63795;55.684;37.864;2023-02-18T09:02:31;99260.63;;;-6.95;76.08
75208;BME280;63795;55.684;37.864;2023-02-18T09:07:31;99267.16;;;-6.90;75.95
75208;BME280;63795;55.684;37.864;2023-02-18T09:12:32;99255.22;;;-6.86;76.21
75208;BME280;63795;55.684;37.864;2023-02-18T09:17:32;99252.44;;;-6.72;75.75
75208;BME280;63795;55.684;37.864;2023-02-18T09:22:33;99234.50;;;-6.70;75.40
75208;BME280;63795;55.684;37.864;2023-02-18T09:27:34;99235.50;;;-6.66;75.53
75208;BME280;63795;55.684;37.864;2023-02-18T09:32:34;99224.25;;;-6.56;75.37
75208;BME280;63795;55.684;37.864;2023-02-18T09:37:35;99216.25;;;-6.44;75.02
75208;BME280;63795;55.684;37.864;2023-02-18T09:42:35;99208.69;;;-6.38;74.89
75208;BME280;63795;55.684;37.864;2023-02-18T09:47:40;99211.63;;;-6.35;74.78
75208;BME280;63795;55.684;37.864;2023-02-18T09:52:41;99192.72;;;-6.28;74.46
75208;BME280;63795;55.684;37.864;2023-02-18T09:57:45;99172.44;;;-6.23;74.00
75208;BME280;63795;55.684;37.864;2023-02-18T10:03:07;99172.66;;;-6.20;73.95
75208;BME280;63795;55.684;37.864;2023-02-18T10:08:21;99145.94;;;-6.11;73.84
75208;BME280;63795;55.684;37.864;2023-02-18T10:13:27;99148.44;;;-6.00;73.37
75208;BME280;63795;55.684;37.864;2023-02-18T10:18:30;99129.34;;;-5.88;72.65
75208;BME280;63795;55.684;37.864;2023-02-18T10:23:33;99116.88;;;-5.86;72.27
75208;BME280;63795;55.684;37.864;2023-02-18T10:28:35;99122.72;;;-5.87;72.02
75208;BME280;63795;55.684;37.864;2023-02-18T10:33:59;99112.47;;;-5.87;72.05
75208;BME280;63795;55.684;37.864;2023-02-18T10:54:58;99076.69;;;-5.53;71.01
75208;BME280;63795;55.684;37.864;2023-02-18T11:05:23;99066.47;;;-5.52;71.12
75208;BME280;63795;55.684;37.864;2023-02-18T11:10:28;99047.00;;;-5.56;70.46
75208;BME280;63795;55.684;37.864;2023-02-18T11:15:30;99048.31;;;-5.53;70.82
75208;BME280;63795;55.684;37.864;2023-02-18T11:25:38;99029.13;;;-5.58;70.59
75208;BME280;63795;55.684;37.864;2023-02-18T11:30:42;99027.16;;;-5.66;71.05
75208;BME280;63795;55.684;37.864;2023-02-18T11:35:51;99023.59;;;-5.58;70.79
75208;BME280;63795;55.684;37.864;2023-02-18T11:41:06;99008.19;;;-5.51;70.84
75208;BME280;63795;55.684;37.864;2023-02-18T11:46:26;99011.28;;;-5.44;70.83
75208;BME280;63795;55.684;37.864;2023-02-18T11:51:32;99021.69;;;-5.32;70.82
75208;BME280;63795;55.684;37.864;2023-02-18T11:56:37;98992.78;;;-5.26;70.60
75208;BME280;63795;55.684;37.864;2023-02-18T12:12:13;98984.34;;;-5.21;70.12
75208;BME280;63795;55.684;37.864;2023-02-18T12:22:53;98965.50;;;-5.36;70.54
75208;BME280;63795;55.684;37.864;2023-02-18T12:33:17;98955.44;;;-5.49;70.75
75208;BME280;63795;55.684;37.864;2023-02-18T13:15:42;98920.34;;;-5.57;70.23
75208;BME280;63795;55.684;37.864;2023-02-18T13:21:04;98903.94;;;-5.62;70.25
75208;BME280;63795;55.684;37.864;2023-02-18T13:26:10;98913.84;;;-5.61;70.20
75208;BME280;63795;55.684;37.864;2023-02-18T13:32:05;98894.06;;;-5.63;70.12
75208;BME280;63795;55.684;37.864;2023-02-18T13:52:36;98871.16;;;-5.64;70.63
75208;BME280;63795;55.684;37.864;2023-02-18T13:57:37;98858.81;;;-5.66;70.50
75208;BME280;63795;55.684;37.864;2023-02-18T14:02:57;98861.09;;;-5.68;70.48
75208;BME280;63795;55.684;37.864;2023-02-18T14:09:01;98847.13;;;-5.72;70.41
75208;BME280;63795;55.684;37.864;2023-02-18T14:13:48;98849.72;;;-5.75;70.48
75208;BME280;63795;55.684;37.864;2023-02-18T14:18:58;98844.38;;;-5.80;70.77
75208;BME280;63795;55.684;37.864;2023-02-18T14:24:01;98858.19;;;-5.89;70.81
75208;BME280;63795;55.684;37.864;2023-02-18T14:29:11;98831.88;;;-5.95;70.69
75208;BME280;63795;55.684;37.864;2023-02-18T14:49:52;98818.91;;;-6.03;70.86
75208;BME280;63795;55.684;37.864;2023-02-18T14:54:55;98810.97;;;-6.04;71.28
75208;BME280;63795;55.684;37.864;2023-02-18T14:59:58;98804.31;;;-6.03;71.43
75208;BME280;63795;55.684;37.864;2023-02-18T15:05:23;98798.81;;;-6.03;71.52
75208;BME280;63795;55.684;37.864;2023-02-18T15:11:00;98790.69;;;-6.00;71.85
75208;BME280;63795;55.684;37.864;2023-02-18T15:16:05;98781.28;;;-6.07;72.41
75208;BME280;63795;55.684;37.864;2023-02-18T15:21:12;98789.56;;;-6.07;72.18
75208;BME280;63795;55.684;37.864;2023-02-18T15:26:15;98772.34;;;-6.04;71.86
75208;BME280;63795;55.684;37.864;2023-02-18T15:31:15;98755.81;;;-6.13;71.78
75208;BME280;63795;55.684;37.864;2023-02-18T15:36:17;98748.50;;;-6.09;71.58
75208;BME280;63795;55.684;37.864;2023-02-18T15:41:19;98736.19;;;-6.20;71.31
75208;BME280;63795;55.684;37.864;2023-02-18T15:46:22;98738.28;;;-6.09;71.34
75208;BME280;63795;55.684;37.864;2023-02-18T15:51:29;98746.06;;;-6.11;71.32
75208;BME280;63795;55.684;37.864;2023-02-18T15:57:25;98722.41;;;-6.20;71.96
75208;BME280;63795;55.684;37.864;2023-02-18T16:02:18;98725.31;;;-6.17;71.94
75208;BME280;63795;55.684;37.864;2023-02-18T16:12:30;98715.25;;;-6.13;72.37
75208;BME280;63795;55.684;37.864;2023-02-18T16:17:31;98711.53;;;-6.17;72.81
75208;BME280;63795;55.684;37.864;2023-02-18T16:22:45;98712.50;;;-6.13;72.82
75208;BME280;63795;55.684;37.864;2023-02-18T16:28:06;98710.22;;;-6.11;72.66
75208;BME280;63795;55.684;37.864;2023-02-18T16:33:10;98677.81;;;-6.22;72.93
75208;BME280;63795;55.684;37.864;2023-02-18T16:38:15;98678.44;;;-6.17;73.11
75208;BME280;63795;55.684;37.864;2023-02-18T16:43:22;98698.56;;;-6.07;72.69
75208;BME280;63795;55.684;37.864;2023-02-18T16:48:30;98694.66;;;-6.07;72.98
75208;BME280;63795;55.684;37.864;2023-02-18T16:53:31;98682.00;;;-6.07;72.84
75208;BME280;63795;55.684;37.864;2023-02-18T16:58:31;98670.81;;;-6.11;73.04
75208;BME280;63795;55.684;37.864;2023-02-18T17:03:32;98667.06;;;-6.07;73.01
75208;BME280;63795;55.684;37.864;2023-02-18T17:08:32;98661.22;;;-6.05;72.96
75208;BME280;63795;55.684;37.864;2023-02-18T17:13:35;98646.16;;;-6.07;73.04
75208;BME280;63795;55.684;37.864;2023-02-18T17:18:36;98643.72;;;-6.09;73.21
75208;BME280;63795;55.684;37.864;2023-02-18T17:23:36;98652.16;;;-6.05;73.19
75208;BME280;63795;55.684;37.864;2023-02-18T17:28:37;98641.78;;;-6.09;72.88
75208;BME280;63795;55.684;37.864;2023-02-18T17:33:37;98639.97;;;-6.04;72.85
75208;BME280;63795;55.684;37.864;2023-02-18T17:38:38;98631.72;;;-6.04;72.77
75208;BME280;63795;55.684;37.864;2023-02-18T17:43:39;98630.88;;;-6.05;72.86
75208;BME280;63795;55.684;37.864;2023-02-18T17:48:41;98629.78;;;-6.04;72.82
75208;BME280;63795;55.684;37.864;2023-02-18T17:53:42;98631.72;;;-6.04;72.92
75208;BME280;63795;55.684;37.864;2023-02-18T17:58:43;98624.59;;;-6.05;72.83
75208;BME280;63795;55.684;37.864;2023-02-18T18:03:45;98604.31;;;-6.10;72.79
75208;BME280;63795;55.684;37.864;2023-02-18T18:08:47;98617.78;;;-6.08;72.88
75208;BME280;63795;55.684;37.864;2023-02-18T18:13:48;98610.97;;;-6.11;72.96
75208;BME280;63795;55.684;37.864;2023-02-18T18:18:48;98618.41;;;-6.11;72.66
75208;BME280;63795;55.684;37.864;2023-02-18T18:23:49;98598.34;;;-6.20;72.62
75208;BME280;63795;55.684;37.864;2023-02-18T18:28:50;98602.41;;;-6.18;72.51
75208;BME280;63795;55.684;37.864;2023-02-18T18:33:51;98611.16;;;-6.16;72.21
75208;BME280;63795;55.684;37.864;2023-02-18T18:38:52;98599.47;;;-6.21;72.28
75208;BME280;63795;55.684;37.864;2023-02-18T18:43:52;98602.41;;;-6.18;72.51
75208;BME280;63795;55.684;37.864;2023-02-18T18:48:53;98599.16;;;-6.20;72.27
75208;BME280;63795;55.684;37.864;2023-02-18T18:53:53;98584.06;;;-6.22;72.53
75208;BME280;63795;55.684;37.864;2023-02-18T18:58:54;98587.16;;;-6.24;72.39
75208;BME280;63795;55.684;37.864;2023-02-18T19:03:54;98586.69;;;-6.26;72.82
75208;BME280;63795;55.684;37.864;2023-02-18T19:08:55;98583.13;;;-6.26;72.95
75208;BME280;63795;55.684;37.864;2023-02-18T19:13:55;98575.19;;;-6.28;73.17
75208;BME280;63795;55.684;37.864;2023-02-18T19:18:56;98578.25;;;-6.29;73.45
75208;BME280;63795;55.684;37.864;2023-02-18T19:23:56;98579.88;;;-6.28;73.42
75208;BME280;63795;55.684;37.864;2023-02-18T19:28:59;98563.50;;;-6.33;73.27
75208;BME280;63795;55.684;37.864;2023-02-18T19:33:59;98566.25;;;-6.33;73.69
75208;BME280;63795;55.684;37.864;2023-02-18T19:38:59;98562.53;;;-6.37;73.72
75208;BME280;63795;55.684;37.864;2023-02-18T19:44:00;98558.19;;;-6.38;73.78
75208;BME280;63795;55.684;37.864;2023-02-18T19:49:00;98543.63;;;-6.47;73.95
75208;BME280;63795;55.684;37.864;2023-02-18T19:54:01;98536.97;;;-6.46;74.00
75208;BME280;63795;55.684;37.864;2023-02-18T19:59:01;98549.78;;;-6.50;73.89
75208;BME280;63795;55.684;37.864;2023-02-18T20:04:02;98544.13;;;-6.54;74.28
75208;BME280;63795;55.684;37.864;2023-02-18T20:09:02;98542.97;;;-6.53;74.04
75208;BME280;63795;55.684;37.864;2023-02-18T20:14:03;98529.84;;;-6.56;74.07
75208;BME280;63795;55.684;37.864;2023-02-18T20:19:03;98521.09;;;-6.58;74.10
75208;BME280;63795;55.684;37.864;2023-02-18T20:24:04;98515.94;;;-6.59;74.03
75208;BME280;63795;55.684;37.864;2023-02-18T20:29:04;98515.13;;;-6.60;73.70
75208;BME280;63795;55.684;37.864;2023-02-18T20:34:05;98518.34;;;-6.58;73.62
75208;BME280;63795;55.684;37.864;2023-02-18T20:39:05;98516.72;;;-6.59;73.25
75208;BME280;63795;55.684;37.864;2023-02-18T20:44:06;98507.50;;;-6.63;73.54
75208;BME280;63795;55.684;37.864;2023-02-18T20:49:14;98501.84;;;-6.66;73.38
75208;BME280;63795;55.684;37.864;2023-02-18T20:54:16;98500.53;;;-6.69;73.13
75208;BME280;63795;55.684;37.864;2023-02-18T20:59:19;98506.03;;;-6.69;73.31
75208;BME280;63795;55.684;37.864;2023-02-18T21:04:20;98489.03;;;-6.71;73.28
75208;BME280;63795;55.684;37.864;2023-02-18T21:09:21;98494.06;;;-6.73;72.80
75208;BME280;63795;55.684;37.864;2023-02-18T21:14:21;98479.31;;;-6.77;72.92
75208;BME280;63795;55.684;37.864;2023-02-18T21:19:22;98475.31;;;-6.79;72.79
75208;BME280;63795;55.684;37.864;2023-02-18T21:24:22;98482.28;;;-6.82;73.02
75208;BME280;63795;55.684;37.864;2023-02-18T21:29:23;98474.16;;;-6.87;72.76
75208;BME280;63795;55.684;37.864;2023-02-18T21:34:23;98471.41;;;-6.87;72.94
75208;BME280;63795;55.684;37.864;2023-02-18T21:39:25;98464.94;;;-6.91;73.05
75208;BME280;63795;55.684;37.864;2023-02-18T21:44:25;98464.47;;;-6.93;73.13
75208;BME280;63795;55.684;37.864;2023-02-18T21:49:26;98442.78;;;-7.03;73.03
75208;BME280;63795;55.684;37.864;2023-02-18T21:54:42;98451.03;;;-7.03;73.37
75208;BME280;63795;55.684;37.864;2023-02-18T21:59:47;98446.84;;;-7.09;73.14
75208;BME280;63795;55.684;37.864;2023-02-18T22:04:48;98447.50;;;-7.12;73.17
75208;BME280;63795;55.684;37.864;2023-02-18T22:09:49;98438.91;;;-7.19;72.71
75208;BME280;63795;55.684;37.864;2023-02-18T22:14:52;98430.16;;;-7.21;72.73
75208;BME280;63795;55.684;37.864;2023-02-18T22:19:52;98430.03;;;-7.25;72.58
75208;BME280;63795;55.684;37.864;2023-02-18T22:24:53;98440.88;;;-7.28;72.25
75208;BME280;63795;55.684;37.864;2023-02-18T22:29:53;98428.91;;;-7.32;72.56
75208;BME280;63795;55.684;37.864;2023-02-18T22:34:53;98436.00;;;-7.31;72.58
75208;BME280;63795;55.684;37.864;2023-02-18T22:39:54;98435.22;;;-7.32;73.04
75208;BME280;63795;55.684;37.864;2023-02-18T22:44:54;98412.88;;;-7.39;73.49
75208;BME280;63795;55.684;37.864;2023-02-18T22:49:56;98415.47;;;-7.34;73.91
75208;BME280;63795;55.684;37.864;2023-02-18T22:54:56;98417.41;;;-7.34;74.21
75208;BME280;63795;55.684;37.864;2023-02-18T22:59:57;98415.47;;;-7.34;74.60
75208;BME280;63795;55.684;37.864;2023-02-18T23:04:57;98421.47;;;-7.32;74.64
75208;BME280;63795;55.684;37.864;2023-02-18T23:09:58;98407.53;;;-7.35;74.99
75208;BME280;63795;55.684;37.864;2023-02-18T23:14:58;98406.91;;;-7.32;74.99
75208;BME280;63795;55.684;37.864;2023-02-18T23:19:58;98418.06;;;-7.37;75.19
75208;BME280;63795;55.684;37.864;2023-02-18T23:25:00;98410.13;;;-7.39;74.96
75208;BME280;63795;55.684;37.864;2023-02-18T23:30:02;98415.81;;;-7.44;75.30
75208;BME280;63795;55.684;37.864;2023-02-18T23:35:03;98411.91;;;-7.43;75.24
75208;BME280;63795;55.684;37.864;2023-02-18T23:40:04;98403.66;;;-7.43;75.14
75208;BME280;63795;55.684;37.864;2023-02-18T23:45:04;98413.53;;;-7.42;74.96
75208;BME280;63795;55.684;37.864;2023-02-18T23:50:05;98416.78;;;-7.48;75.37
75208;BME280;63795;55.684;37.864;2023-02-18T23:55:06;98395.88;;;-7.49;75.35
